sensor_id;sensor_type;location;lat;lon;timestamp;pressure;altitude;pressure_sealevel;temperature;humidity
50310;BME280;36207;51.850;21.698;2022-08-05T00:02:09;100096.57;;;18.71;59.41
50310;BME280;36207;51.850;21.698;2022-08-05T00:04:36;100094.89;;;18.69;59.33
50310;BME280;36207;51.850;21.698;2022-08-05T00:07:02;100091.77;;;18.67;59.26
50310;BME280;36207;51.850;21.698;2022-08-05T00:09:29;100094.48;;;18.65;59.41
50310;BME280;36207;51.850;21.698;2022-08-05T00:11:55;100090.27;;;18.63;59.32
50310;BME280;36207;51.850;21.698;2022-08-05T00:14:22;100091.73;;;18.63;59.36
50310;BME280;36207;51.850;21.698;2022-08-05T00:16:49;100091.27;;;18.63;59.38
50310;BME280;36207;51.850;21.698;2022-08-05T00:19:15;100089.61;;;18.63;59.44
50310;BME280;36207;51.850;21.698;2022-08-05T00:21:42;100087.91;;;18.62;59.52
50310;BME280;36207;51.850;21.698;2022-08-05T00:24:09;100088.10;;;18.61;59.65
50310;BME280;36207;51.850;21.698;2022-08-05T00:26:37;100090.01;;;18.58;59.77
50310;BME280;36207;51.850;21.698;2022-08-05T00:29:03;100086.39;;;18.52;59.74
50310;BME280;36207;51.850;21.698;2022-08-05T00:31:30;100084.57;;;18.46;59.83
50310;BME280;36207;51.850;21.698;2022-08-05T00:33:56;100088.80;;;18.41;60.08
50310;BME280;36207;51.850;21.698;2022-08-05T00:36:22;100091.73;;;18.36;60.02
50310;BME280;36207;51.850;21.698;2022-08-05T00:38:50;100089.30;;;18.31;60.23
50310;BME280;36207;51.850;21.698;2022-08-05T00:41:30;100093.63;;;18.30;60.16
50310;BME280;36207;51.850;21.698;2022-08-05T00:43:57;100093.95;;;18.29;60.35
50310;BME280;36207;51.850;21.698;2022-08-05T00:46:24;100093.50;;;18.27;60.52
50310;BME280;36207;51.850;21.698;2022-08-05T00:48:51;100092.13;;;18.24;60.46
50310;BME280;36207;51.850;21.698;2022-08-05T00:51:19;100088.64;;;18.21;60.57
50310;BME280;36207;51.850;21.698;2022-08-05T00:53:46;100089.23;;;18.17;60.51
50310;BME280;36207;51.850;21.698;2022-08-05T00:56:14;100088.64;;;18.12;60.52
50310;BME280;36207;51.850;21.698;2022-08-05T00:58:43;100089.48;;;18.07;60.72
50310;BME280;36207;51.850;21.698;2022-08-05T01:01:11;100085.50;;;18.02;60.87
50310;BME280;36207;51.850;21.698;2022-08-05T01:03:38;100082.43;;;18.02;60.86
50310;BME280;36207;51.850;21.698;2022-08-05T01:06:06;100081.06;;;18.06;61.18
50310;BME280;36207;51.850;21.698;2022-08-05T01:08:33;100083.92;;;18.09;61.03
50310;BME280;36207;51.850;21.698;2022-08-05T01:11:05;100078.84;;;18.11;60.87
50310;BME280;36207;51.850;21.698;2022-08-05T01:25:04;100077.21;;;18.03;61.26
50310;BME280;36207;51.850;21.698;2022-08-05T01:30:12;100074.39;;;18.03;61.29
50310;BME280;36207;51.850;21.698;2022-08-05T01:32:43;100075.20;;;18.00;61.27
50310;BME280;36207;51.850;21.698;2022-08-05T01:35:17;100070.55;;;17.97;61.43
50310;BME280;36207;51.850;21.698;2022-08-05T01:37:49;100072.97;;;17.93;61.58
50310;BME280;36207;51.850;21.698;2022-08-05T01:40:17;100071.62;;;17.89;61.59
50310;BME280;36207;51.850;21.698;2022-08-05T01:42:46;100071.95;;;17.88;61.60
50310;BME280;36207;51.850;21.698;2022-08-05T01:45:15;100070.96;;;17.89;61.67
50310;BME280;36207;51.850;21.698;2022-08-05T01:47:42;100066.52;;;17.88;61.43
50310;BME280;36207;51.850;21.698;2022-08-05T01:50:14;100070.32;;;17.87;61.78
50310;BME280;36207;51.850;21.698;2022-08-05T01:52:45;100069.69;;;17.84;61.95
50310;BME280;36207;51.850;21.698;2022-08-05T01:55:13;100066.81;;;17.78;61.85
50310;BME280;36207;51.850;21.698;2022-08-05T01:57:43;100066.30;;;17.77;61.93
50310;BME280;36207;51.850;21.698;2022-08-05T02:00:11;100064.02;;;17.77;61.83
50310;BME280;36207;51.850;21.698;2022-08-05T02:02:46;100064.61;;;17.77;62.04
50310;BME280;36207;51.850;21.698;2022-08-05T02:05:16;100063.80;;;17.76;62.00
50310;BME280;36207;51.850;21.698;2022-08-05T02:07:44;100063.26;;;17.72;62.18
50310;BME280;36207;51.850;21.698;2022-08-05T02:10:10;100060.17;;;17.70;62.13
50310;BME280;36207;51.850;21.698;2022-08-05T02:12:50;100059.83;;;17.67;62.31
50310;BME280;36207;51.850;21.698;2022-08-05T02:15:23;100057.44;;;17.63;62.14
50310;BME280;36207;51.850;21.698;2022-08-05T02:17:56;100052.65;;;17.61;62.13
50310;BME280;36207;51.850;21.698;2022-08-05T02:20:25;100050.67;;;17.61;62.30
50310;BME280;36207;51.850;21.698;2022-08-05T02:22:59;100048.14;;;17.61;62.45
50310;BME280;36207;51.850;21.698;2022-08-05T02:25:35;100049.93;;;17.62;62.49
50310;BME280;36207;51.850;21.698;2022-08-05T02:28:06;100047.71;;;17.61;62.54
50310;BME280;36207;51.850;21.698;2022-08-05T02:30:57;100046.11;;;17.60;62.47
50310;BME280;36207;51.850;21.698;2022-08-05T02:33:25;100044.43;;;17.58;62.57
50310;BME280;36207;51.850;21.698;2022-08-05T02:35:55;100043.69;;;17.57;62.65
50310;BME280;36207;51.850;21.698;2022-08-05T02:38:27;100043.56;;;17.57;62.63
50310;BME280;36207;51.850;21.698;2022-08-05T02:40:55;100042.09;;;17.58;62.67
50310;BME280;36207;51.850;21.698;2022-08-05T02:43:24;100040.73;;;17.59;62.74
50310;BME280;36207;51.850;21.698;2022-08-05T02:45:51;100039.23;;;17.58;62.68
50310;BME280;36207;51.850;21.698;2022-08-05T02:48:20;100038.79;;;17.56;62.99
50310;BME280;36207;51.850;21.698;2022-08-05T02:50:48;100034.97;;;17.53;62.97
50310;BME280;36207;51.850;21.698;2022-08-05T02:53:16;100032.39;;;17.49;63.06
50310;BME280;36207;51.850;21.698;2022-08-05T02:55:47;100032.73;;;17.47;63.05
50310;BME280;36207;51.850;21.698;2022-08-05T02:58:20;100029.56;;;17.46;62.92
50310;BME280;36207;51.850;21.698;2022-08-05T03:00:47;100030.48;;;17.44;63.09
50310;BME280;36207;51.850;21.698;2022-08-05T03:03:18;100031.30;;;17.42;63.25
50310;BME280;36207;51.850;21.698;2022-08-05T03:05:47;100030.27;;;17.40;63.16
50310;BME280;36207;51.850;21.698;2022-08-05T03:08:15;100029.88;;;17.39;63.10
50310;BME280;36207;51.850;21.698;2022-08-05T03:10:43;100027.00;;;17.37;63.32
50310;BME280;36207;51.850;21.698;2022-08-05T03:13:13;100025.02;;;17.34;63.33
50310;BME280;36207;51.850;21.698;2022-08-05T03:15:46;100024.21;;;17.34;63.38
50310;BME280;36207;51.850;21.698;2022-08-05T03:18:13;100023.85;;;17.35;63.33
50310;BME280;36207;51.850;21.698;2022-08-05T03:20:40;100020.77;;;17.35;63.45
50310;BME280;36207;51.850;21.698;2022-08-05T03:23:08;100015.80;;;17.36;63.40
50310;BME280;36207;51.850;21.698;2022-08-05T03:25:36;100016.03;;;17.37;63.60
50310;BME280;36207;51.850;21.698;2022-08-05T03:28:05;100017.85;;;17.38;63.53
50310;BME280;36207;51.850;21.698;2022-08-05T03:30:33;100017.24;;;17.39;63.51
50310;BME280;36207;51.850;21.698;2022-08-05T03:33:04;100016.79;;;17.44;63.78
50310;BME280;36207;51.850;21.698;2022-08-05T03:35:31;100018.80;;;17.50;63.89
50310;BME280;36207;51.850;21.698;2022-08-05T03:37:59;100021.82;;;17.55;63.95
50310;BME280;36207;51.850;21.698;2022-08-05T03:40:26;100023.27;;;17.59;63.92
50310;BME280;36207;51.850;21.698;2022-08-05T03:42:52;100020.36;;;17.63;64.07
50310;BME280;36207;51.850;21.698;2022-08-05T03:45:19;100017.84;;;17.69;64.11
50310;BME280;36207;51.850;21.698;2022-08-05T03:47:45;100017.34;;;17.76;64.12
50310;BME280;36207;51.850;21.698;2022-08-05T03:50:12;100016.48;;;17.82;64.25
50310;BME280;36207;51.850;21.698;2022-08-05T03:53:30;100014.10;;;17.86;64.13
50310;BME280;36207;51.850;21.698;2022-08-05T03:56:28;100010.00;;;17.94;64.37
50310;BME280;36207;51.850;21.698;2022-08-05T03:58:54;100011.00;;;18.04;64.31
50310;BME280;36207;51.850;21.698;2022-08-05T04:01:22;100012.05;;;18.12;64.39
50310;BME280;36207;51.850;21.698;2022-08-05T04:03:50;100005.16;;;18.17;64.26
50310;BME280;36207;51.850;21.698;2022-08-05T04:06:18;100008.45;;;18.22;64.42
50310;BME280;36207;51.850;21.698;2022-08-05T04:08:46;100006.58;;;18.29;64.45
50310;BME280;36207;51.850;21.698;2022-08-05T04:11:13;100007.30;;;18.36;64.58
50310;BME280;36207;51.850;21.698;2022-08-05T04:13:40;100006.48;;;18.44;64.69
50310;BME280;36207;51.850;21.698;2022-08-05T04:16:08;100008.80;;;18.50;64.73
50310;BME280;36207;51.850;21.698;2022-08-05T04:18:35;100010.66;;;18.56;64.62
50310;BME280;36207;51.850;21.698;2022-08-05T04:21:03;100010.88;;;18.61;64.71
50310;BME280;36207;51.850;21.698;2022-08-05T04:23:30;100012.13;;;18.68;64.57
50310;BME280;36207;51.850;21.698;2022-08-05T04:25:58;100010.92;;;18.78;64.81
50310;BME280;36207;51.850;21.698;2022-08-05T04:28:24;100018.05;;;18.88;64.64
50310;BME280;36207;51.850;21.698;2022-08-05T04:30:51;100016.45;;;18.96;64.62
50310;BME280;36207;51.850;21.698;2022-08-05T04:33:17;100017.38;;;19.06;64.57
50310;BME280;36207;51.850;21.698;2022-08-05T04:35:43;100011.36;;;19.16;64.90
50310;BME280;36207;51.850;21.698;2022-08-05T04:38:10;100012.55;;;19.29;64.58
50310;BME280;36207;51.850;21.698;2022-08-05T04:40:38;100015.91;;;19.41;64.76
50310;BME280;36207;51.850;21.698;2022-08-05T04:43:06;100012.08;;;19.52;64.73
50310;BME280;36207;51.850;21.698;2022-08-05T04:45:33;100009.67;;;19.63;64.72
50310;BME280;36207;51.850;21.698;2022-08-05T04:48:10;100010.84;;;19.74;64.78
50310;BME280;36207;51.850;21.698;2022-08-05T04:50:45;100013.91;;;19.86;64.79
50310;BME280;36207;51.850;21.698;2022-08-05T04:53:13;100012.86;;;19.99;64.90
50310;BME280;36207;51.850;21.698;2022-08-05T04:55:41;100009.55;;;20.10;64.75
50310;BME280;36207;51.850;21.698;2022-08-05T04:58:10;100009.08;;;20.20;64.60
50310;BME280;36207;51.850;21.698;2022-08-05T05:00:38;100010.23;;;20.29;64.45
50310;BME280;36207;51.850;21.698;2022-08-05T05:03:05;100007.64;;;20.41;64.43
50310;BME280;36207;51.850;21.698;2022-08-05T05:05:51;100008.76;;;20.55;64.44
50310;BME280;36207;51.850;21.698;2022-08-05T05:08:18;100010.88;;;20.68;64.32
50310;BME280;36207;51.850;21.698;2022-08-05T05:10:45;100012.95;;;20.77;64.47
50310;BME280;36207;51.850;21.698;2022-08-05T05:13:14;100010.91;;;20.85;64.51
50310;BME280;36207;51.850;21.698;2022-08-05T05:15:43;100008.61;;;20.95;64.37
50310;BME280;36207;51.850;21.698;2022-08-05T05:18:14;100008.14;;;21.07;64.14
50310;BME280;36207;51.850;21.698;2022-08-05T05:20:47;100009.19;;;21.20;64.16
50310;BME280;36207;51.850;21.698;2022-08-05T05:23:13;100005.83;;;21.30;64.06
50310;BME280;36207;51.850;21.698;2022-08-05T05:25:41;100010.16;;;21.39;64.22
50310;BME280;36207;51.850;21.698;2022-08-05T05:28:08;100012.50;;;21.47;64.13
50310;BME280;36207;51.850;21.698;2022-08-05T05:30:35;100012.17;;;21.56;64.17
50310;BME280;36207;51.850;21.698;2022-08-05T05:33:04;100010.77;;;21.64;64.20
50310;BME280;36207;51.850;21.698;2022-08-05T05:35:31;100010.73;;;21.71;63.75
50310;BME280;36207;51.850;21.698;2022-08-05T05:37:59;100011.39;;;21.80;63.86
50310;BME280;36207;51.850;21.698;2022-08-05T05:40:27;100014.23;;;21.91;63.99
50310;BME280;36207;51.850;21.698;2022-08-05T05:42:54;100015.33;;;22.00;63.75
50310;BME280;36207;51.850;21.698;2022-08-05T05:45:20;100011.58;;;22.11;63.69
50310;BME280;36207;51.850;21.698;2022-08-05T05:47:47;100015.27;;;22.18;63.52
50310;BME280;36207;51.850;21.698;2022-08-05T05:50:16;100015.31;;;22.26;63.54
50310;BME280;36207;51.850;21.698;2022-08-05T05:52:43;100014.25;;;22.33;63.66
50310;BME280;36207;51.850;21.698;2022-08-05T05:55:11;100009.09;;;22.40;63.48
50310;BME280;36207;51.850;21.698;2022-08-05T05:57:40;100007.55;;;22.50;63.44
50310;BME280;36207;51.850;21.698;2022-08-05T06:00:10;100007.56;;;22.63;63.49
50310;BME280;36207;51.850;21.698;2022-08-05T06:02:37;100004.90;;;22.78;63.46
50310;BME280;36207;51.850;21.698;2022-08-05T06:05:06;100007.38;;;22.92;63.25
50310;BME280;36207;51.850;21.698;2022-08-05T06:07:32;100007.73;;;23.02;63.22
50310;BME280;36207;51.850;21.698;2022-08-05T06:09:59;100009.92;;;23.14;63.15
50310;BME280;36207;51.850;21.698;2022-08-05T06:12:25;100010.16;;;23.24;62.83
50310;BME280;36207;51.850;21.698;2022-08-05T06:14:52;100011.47;;;23.33;62.75
50310;BME280;36207;51.850;21.698;2022-08-05T06:17:18;100011.00;;;23.45;62.45
50310;BME280;36207;51.850;21.698;2022-08-05T06:19:44;100009.41;;;23.55;62.49
50310;BME280;36207;51.850;21.698;2022-08-05T06:22:11;100007.33;;;23.65;62.24
50310;BME280;36207;51.850;21.698;2022-08-05T06:24:41;100008.38;;;23.76;62.22
50310;BME280;36207;51.850;21.698;2022-08-05T06:27:07;100009.08;;;23.86;61.97
50310;BME280;36207;51.850;21.698;2022-08-05T06:29:34;100012.71;;;23.95;61.53
50310;BME280;36207;51.850;21.698;2022-08-05T06:32:01;100016.22;;;24.01;61.41
50310;BME280;36207;51.850;21.698;2022-08-05T06:34:27;100015.05;;;24.09;61.29
50310;BME280;36207;51.850;21.698;2022-08-05T06:36:54;100012.39;;;24.17;60.80
50310;BME280;36207;51.850;21.698;2022-08-05T06:39:20;100011.92;;;24.23;61.03
50310;BME280;36207;51.850;21.698;2022-08-05T06:41:48;100016.14;;;24.30;60.49
50310;BME280;36207;51.850;21.698;2022-08-05T06:44:14;100014.08;;;24.37;60.42
50310;BME280;36207;51.850;21.698;2022-08-05T06:46:41;100014.60;;;24.44;60.25
50310;BME280;36207;51.850;21.698;2022-08-05T06:49:07;100014.06;;;24.50;59.89
50310;BME280;36207;51.850;21.698;2022-08-05T06:51:34;100012.61;;;24.57;60.51
50310;BME280;36207;51.850;21.698;2022-08-05T06:54:02;100011.08;;;24.65;60.66
50310;BME280;36207;51.850;21.698;2022-08-05T06:56:30;100008.66;;;24.76;60.93
50310;BME280;36207;51.850;21.698;2022-08-05T06:58:56;100009.81;;;24.87;60.60
50310;BME280;36207;51.850;21.698;2022-08-05T07:01:23;100008.23;;;24.96;60.14
50310;BME280;36207;51.850;21.698;2022-08-05T07:03:50;100006.64;;;25.03;59.77
50310;BME280;36207;51.850;21.698;2022-08-05T07:06:16;100004.11;;;25.11;60.01
50310;BME280;36207;51.850;21.698;2022-08-05T07:08:43;100006.09;;;25.19;59.90
50310;BME280;36207;51.850;21.698;2022-08-05T07:11:10;99998.86;;;25.27;60.06
50310;BME280;36207;51.850;21.698;2022-08-05T07:13:37;99997.67;;;25.38;60.11
50310;BME280;36207;51.850;21.698;2022-08-05T07:16:22;99996.72;;;25.49;60.18
50310;BME280;36207;51.850;21.698;2022-08-05T07:19:07;99997.11;;;25.61;59.27
50310;BME280;36207;51.850;21.698;2022-08-05T07:21:34;99994.95;;;25.69;59.17
50310;BME280;36207;51.850;21.698;2022-08-05T07:24:00;99992.90;;;25.76;58.73
50310;BME280;36207;51.850;21.698;2022-08-05T07:26:27;99991.58;;;25.81;58.52
50310;BME280;36207;51.850;21.698;2022-08-05T07:28:53;99993.24;;;25.89;58.72
50310;BME280;36207;51.850;21.698;2022-08-05T07:31:20;99990.64;;;25.97;58.92
50310;BME280;36207;51.850;21.698;2022-08-05T07:33:46;99994.73;;;26.07;58.34
50310;BME280;36207;51.850;21.698;2022-08-05T07:36:13;99994.69;;;26.15;57.84
50310;BME280;36207;51.850;21.698;2022-08-05T07:38:40;99998.16;;;26.22;57.58
50310;BME280;36207;51.850;21.698;2022-08-05T07:41:08;99998.27;;;26.28;57.76
50310;BME280;36207;51.850;21.698;2022-08-05T07:43:35;99996.25;;;26.36;57.47
50310;BME280;36207;51.850;21.698;2022-08-05T07:46:01;99993.34;;;26.43;58.07
50310;BME280;36207;51.850;21.698;2022-08-05T07:48:27;99993.41;;;26.54;58.30
50310;BME280;36207;51.850;21.698;2022-08-05T07:50:53;99989.75;;;26.67;58.21
50310;BME280;36207;51.850;21.698;2022-08-05T07:53:20;99987.86;;;26.78;56.87
50310;BME280;36207;51.850;21.698;2022-08-05T07:55:47;99986.65;;;26.84;56.85
50310;BME280;36207;51.850;21.698;2022-08-05T07:58:13;99984.49;;;26.91;55.87
50310;BME280;36207;51.850;21.698;2022-08-05T08:00:42;99983.02;;;26.97;56.22
50310;BME280;36207;51.850;21.698;2022-08-05T08:03:10;99984.29;;;27.02;54.30
50310;BME280;36207;51.850;21.698;2022-08-05T08:05:39;99982.10;;;27.06;55.01
50310;BME280;36207;51.850;21.698;2022-08-05T08:08:12;99979.26;;;27.12;54.35
50310;BME280;36207;51.850;21.698;2022-08-05T08:10:39;99979.38;;;27.18;53.92
50310;BME280;36207;51.850;21.698;2022-08-05T08:13:06;99979.27;;;27.24;53.42
50310;BME280;36207;51.850;21.698;2022-08-05T08:15:33;99977.02;;;27.30;53.91
50310;BME280;36207;51.850;21.698;2022-08-05T08:18:03;99974.83;;;27.38;54.20
50310;BME280;36207;51.850;21.698;2022-08-05T08:20:29;99976.89;;;27.44;52.03
50310;BME280;36207;51.850;21.698;2022-08-05T08:22:58;99975.38;;;27.48;52.50
50310;BME280;36207;51.850;21.698;2022-08-05T08:25:26;99976.81;;;27.56;53.03
50310;BME280;36207;51.850;21.698;2022-08-05T08:27:56;99972.27;;;27.63;53.29
50310;BME280;36207;51.850;21.698;2022-08-05T08:30:24;99972.38;;;27.69;51.47
50310;BME280;36207;51.850;21.698;2022-08-05T08:32:50;99973.86;;;27.73;52.66
50310;BME280;36207;51.850;21.698;2022-08-05T08:35:16;99975.48;;;27.79;51.77
50310;BME280;36207;51.850;21.698;2022-08-05T08:37:43;99973.60;;;27.86;52.01
50310;BME280;36207;51.850;21.698;2022-08-05T08:40:10;99972.90;;;27.92;51.25
50310;BME280;36207;51.850;21.698;2022-08-05T08:42:37;99971.96;;;28.00;51.93
50310;BME280;36207;51.850;21.698;2022-08-05T08:45:06;99966.66;;;28.11;52.27
50310;BME280;36207;51.850;21.698;2022-08-05T08:47:33;99966.44;;;28.22;53.08
50310;BME280;36207;51.850;21.698;2022-08-05T08:50:03;99969.14;;;28.35;52.35
50310;BME280;36207;51.850;21.698;2022-08-05T08:52:31;99970.88;;;28.41;50.53
50310;BME280;36207;51.850;21.698;2022-08-05T08:54:59;99969.16;;;28.43;49.47
50310;BME280;36207;51.850;21.698;2022-08-05T08:57:26;99968.27;;;28.46;49.89
50310;BME280;36207;51.850;21.698;2022-08-05T08:59:54;99965.33;;;28.48;49.43
50310;BME280;36207;51.850;21.698;2022-08-05T09:02:24;99962.77;;;28.50;49.25
50310;BME280;36207;51.850;21.698;2022-08-05T09:04:51;99959.43;;;28.57;50.25
50310;BME280;36207;51.850;21.698;2022-08-05T09:07:18;99957.42;;;28.62;48.07
50310;BME280;36207;51.850;21.698;2022-08-05T09:09:45;99955.70;;;28.66;47.68
50310;BME280;36207;51.850;21.698;2022-08-05T09:12:12;99951.84;;;28.71;48.64
50310;BME280;36207;51.850;21.698;2022-08-05T09:14:39;99952.36;;;28.78;48.24
50310;BME280;36207;51.850;21.698;2022-08-05T09:17:07;99952.27;;;28.86;49.37
50310;BME280;36207;51.850;21.698;2022-08-05T09:19:35;99948.55;;;28.92;47.01
50310;BME280;36207;51.850;21.698;2022-08-05T09:22:02;99945.98;;;28.94;46.97
50310;BME280;36207;51.850;21.698;2022-08-05T09:24:29;99947.66;;;28.97;47.31
50310;BME280;36207;51.850;21.698;2022-08-05T09:26:56;99939.90;;;29.02;46.32
50310;BME280;36207;51.850;21.698;2022-08-05T09:32:06;99934.52;;;29.09;45.88
50310;BME280;36207;51.850;21.698;2022-08-05T09:35:08;99930.15;;;29.13;47.05
50310;BME280;36207;51.850;21.698;2022-08-05T09:37:34;99929.63;;;29.19;46.90
50310;BME280;36207;51.850;21.698;2022-08-05T09:40:01;99929.89;;;29.28;46.97
50310;BME280;36207;51.850;21.698;2022-08-05T09:42:39;99922.30;;;29.34;46.59
50310;BME280;36207;51.850;21.698;2022-08-05T09:45:07;99926.04;;;29.42;46.49
50310;BME280;36207;51.850;21.698;2022-08-05T09:47:34;99927.41;;;29.43;44.58
50310;BME280;36207;51.850;21.698;2022-08-05T09:50:05;99929.74;;;29.44;44.92
50310;BME280;36207;51.850;21.698;2022-08-05T09:52:34;99922.00;;;29.46;45.60
50310;BME280;36207;51.850;21.698;2022-08-05T09:55:08;99914.98;;;29.55;46.78
50310;BME280;36207;51.850;21.698;2022-08-05T10:00:08;99919.36;;;29.73;45.61
50310;BME280;36207;51.850;21.698;2022-08-05T10:02:45;99921.30;;;29.79;44.74
50310;BME280;36207;51.850;21.698;2022-08-05T10:05:17;99921.80;;;29.81;44.58
50310;BME280;36207;51.850;21.698;2022-08-05T10:07:53;99923.30;;;29.83;44.43
50310;BME280;36207;51.850;21.698;2022-08-05T10:10:26;99925.14;;;29.90;45.17
50310;BME280;36207;51.850;21.698;2022-08-05T10:12:59;99925.48;;;29.97;44.62
50310;BME280;36207;51.850;21.698;2022-08-05T10:15:38;99928.61;;;30.01;44.64
50310;BME280;36207;51.850;21.698;2022-08-05T10:18:09;99918.42;;;30.06;45.45
50310;BME280;36207;51.850;21.698;2022-08-05T10:20:51;99917.73;;;30.14;45.25
50310;BME280;36207;51.850;21.698;2022-08-05T10:25:46;99907.99;;;30.33;45.73
50310;BME280;36207;51.850;21.698;2022-08-05T10:28:12;99902.11;;;30.40;44.31
50310;BME280;36207;51.850;21.698;2022-08-05T10:30:39;99913.45;;;30.36;42.87
50310;BME280;36207;51.850;21.698;2022-08-05T10:33:06;99908.41;;;30.27;43.53
50310;BME280;36207;51.850;21.698;2022-08-05T10:35:34;99906.37;;;30.32;44.09
50310;BME280;36207;51.850;21.698;2022-08-05T10:38:03;99899.95;;;30.33;43.94
50310;BME280;36207;51.850;21.698;2022-08-05T10:40:55;99897.90;;;30.36;44.05
50310;BME280;36207;51.850;21.698;2022-08-05T10:43:28;99900.08;;;30.44;43.97
50310;BME280;36207;51.850;21.698;2022-08-05T10:46:01;99894.34;;;30.51;43.59
50310;BME280;36207;51.850;21.698;2022-08-05T10:48:39;99886.55;;;30.56;44.16
50310;BME280;36207;51.850;21.698;2022-08-05T10:51:09;99884.73;;;30.51;42.91
50310;BME280;36207;51.850;21.698;2022-08-05T10:56:26;99883.06;;;30.41;42.86
50310;BME280;36207;51.850;21.698;2022-08-05T11:01:29;99885.41;;;30.40;42.81
50310;BME280;36207;51.850;21.698;2022-08-05T11:04:10;99877.75;;;30.42;43.30
50310;BME280;36207;51.850;21.698;2022-08-05T11:09:48;99864.98;;;30.56;43.65
50310;BME280;36207;51.850;21.698;2022-08-05T11:15:14;99864.25;;;30.69;42.11
50310;BME280;36207;51.850;21.698;2022-08-05T11:17:42;99865.98;;;30.64;42.03
50310;BME280;36207;51.850;21.698;2022-08-05T11:20:32;99861.90;;;30.62;42.76
50310;BME280;36207;51.850;21.698;2022-08-05T11:22:59;99857.64;;;30.71;43.18
50310;BME280;36207;51.850;21.698;2022-08-05T11:25:33;99851.90;;;30.78;42.72
50310;BME280;36207;51.850;21.698;2022-08-05T11:33:35;99852.34;;;30.92;42.94
50310;BME280;36207;51.850;21.698;2022-08-05T11:36:09;99858.39;;;30.95;42.09
50310;BME280;36207;51.850;21.698;2022-08-05T11:41:17;99855.45;;;30.90;41.62
50310;BME280;36207;51.850;21.698;2022-08-05T11:44:06;99855.63;;;30.87;41.34
50310;BME280;36207;51.850;21.698;2022-08-05T11:49:14;99844.66;;;30.81;42.17
50310;BME280;36207;51.850;21.698;2022-08-05T11:51:43;99842.37;;;30.90;42.61
50310;BME280;36207;51.850;21.698;2022-08-05T11:54:11;99844.20;;;31.00;42.40
50310;BME280;36207;51.850;21.698;2022-08-05T11:56:46;99842.73;;;31.02;41.75
50310;BME280;36207;51.850;21.698;2022-08-05T11:59:21;99840.20;;;31.02;41.39
50310;BME280;36207;51.850;21.698;2022-08-05T12:04:24;99837.98;;;30.83;41.29
50310;BME280;36207;51.850;21.698;2022-08-05T12:06:51;99837.61;;;30.84;41.38
50310;BME280;36207;51.850;21.698;2022-08-05T12:09:22;99833.42;;;30.90;41.79
50310;BME280;36207;51.850;21.698;2022-08-05T12:11:49;99834.29;;;30.99;41.60
50310;BME280;36207;51.850;21.698;2022-08-05T12:14:16;99834.02;;;31.04;41.44
50310;BME280;36207;51.850;21.698;2022-08-05T12:16:43;99831.72;;;31.09;41.48
50310;BME280;36207;51.850;21.698;2022-08-05T12:19:14;99830.42;;;31.18;42.18
50310;BME280;36207;51.850;21.698;2022-08-05T12:21:44;99829.14;;;31.28;41.85
50310;BME280;36207;51.850;21.698;2022-08-05T12:24:14;99826.02;;;31.35;42.26
50310;BME280;36207;51.850;21.698;2022-08-05T12:26:50;99821.30;;;31.38;42.26
50310;BME280;36207;51.850;21.698;2022-08-05T12:29:19;99820.30;;;31.31;41.13
50310;BME280;36207;51.850;21.698;2022-08-05T12:31:55;99818.77;;;31.20;40.87
50310;BME280;36207;51.850;21.698;2022-08-05T12:34:26;99815.33;;;31.19;41.17
50310;BME280;36207;51.850;21.698;2022-08-05T12:37:08;99818.09;;;31.17;40.45
50310;BME280;36207;51.850;21.698;2022-08-05T12:39:39;99816.07;;;31.18;40.34
50310;BME280;36207;51.850;21.698;2022-08-05T12:42:15;99812.22;;;31.20;40.32
50310;BME280;36207;51.850;21.698;2022-08-05T12:44:43;99802.20;;;31.23;40.69
50310;BME280;36207;51.850;21.698;2022-08-05T12:47:11;99803.14;;;31.30;41.13
50310;BME280;36207;51.850;21.698;2022-08-05T12:49:43;99805.51;;;31.36;40.20
50310;BME280;36207;51.850;21.698;2022-08-05T12:52:12;99801.88;;;31.37;39.86
50310;BME280;36207;51.850;21.698;2022-08-05T12:54:40;99800.06;;;31.39;40.09
50310;BME280;36207;51.850;21.698;2022-08-05T12:57:08;99798.83;;;31.40;39.96
50310;BME280;36207;51.850;21.698;2022-08-05T13:02:22;99795.23;;;31.47;40.87
50310;BME280;36207;51.850;21.698;2022-08-05T13:04:51;99795.14;;;31.47;40.71
50310;BME280;36207;51.850;21.698;2022-08-05T13:07:23;99790.89;;;31.40;39.92
50310;BME280;36207;51.850;21.698;2022-08-05T13:09:53;99786.98;;;31.30;39.62
50310;BME280;36207;51.850;21.698;2022-08-05T13:12:21;99790.48;;;31.24;39.58
50310;BME280;36207;51.850;21.698;2022-08-05T13:14:55;99782.73;;;31.25;40.30
50310;BME280;36207;51.850;21.698;2022-08-05T13:17:25;99779.84;;;31.30;40.31
50310;BME280;36207;51.850;21.698;2022-08-05T13:22:46;99774.70;;;31.39;39.99
50310;BME280;36207;51.850;21.698;2022-08-05T13:25:14;99775.33;;;31.43;40.12
50310;BME280;36207;51.850;21.698;2022-08-05T13:27:52;99776.80;;;31.46;40.35
50310;BME280;36207;51.850;21.698;2022-08-05T13:30:20;99778.10;;;31.52;40.76
50310;BME280;36207;51.850;21.698;2022-08-05T13:32:49;99772.02;;;31.59;41.14
50310;BME280;36207;51.850;21.698;2022-08-05T13:35:18;99767.95;;;31.69;41.12
50310;BME280;36207;51.850;21.698;2022-08-05T13:37:46;99767.06;;;31.75;41.18
50310;BME280;36207;51.850;21.698;2022-08-05T13:40:15;99771.06;;;31.81;40.30
50310;BME280;36207;51.850;21.698;2022-08-05T13:42:43;99767.16;;;31.82;40.07
50310;BME280;36207;51.850;21.698;2022-08-05T13:45:10;99762.20;;;31.82;39.90
50310;BME280;36207;51.850;21.698;2022-08-05T13:47:37;99761.06;;;31.78;39.23
50310;BME280;36207;51.850;21.698;2022-08-05T13:50:05;99761.51;;;31.76;39.27